Weather Data

Pearl Creek Farm: 8878 N Farm Road 75, Walnut Grove MO 65770

<== Previous Day (Thursday 07 Aug 2008) | Next Day (Saturday 09 Aug 2008) ==>

Summary Precipitation Data For Friday 08 August 2008

ElementValueUnits
PrecipitationT
Notes(none)
SourceSpringfield-Branson National Airport (SGF)

Summary Temperature Data For Friday 08 August 2008

ElementValueUnits
High Temperature85 oF
Low Temperature62 oF
Average Temperature74 oF
High Humidity93 %
Low Humidity37 %
Average Humidity64 %
SourceSpringfield-Branson National Airport (SGF)

Detail Temperature Data For Friday 08 August 2008

Date / TimeTemp (F)RH (%)Dew Pt (F)Report Date / TimeSource
2008-08-08 03:52:00 62 93 60.0 2017-12-29 19:14:24.89625 Springfield-Branson National Airport (SGF)
2008-08-08 11:52:00 84 41 58.0 2017-12-29 19:14:24.89625 Springfield-Branson National Airport (SGF)
2008-08-08 12:52:00 84 43 59.0 2017-12-29 19:14:24.89625 Springfield-Branson National Airport (SGF)
2008-08-08 15:52:00 85 39 57.0 2017-12-29 19:14:24.89625 Springfield-Branson National Airport (SGF)
2008-08-08 00:52:00 64 90 61.0 2017-12-29 19:14:24.89625 Springfield-Branson National Airport (SGF)
2008-08-08 01:52:00 63 90 60.0 2017-12-29 19:14:24.89625 Springfield-Branson National Airport (SGF)
2008-08-08 02:52:00 63 93 61.0 2017-12-29 19:14:24.89625 Springfield-Branson National Airport (SGF)
2008-08-08 04:52:00 63 90 60.0 2017-12-29 19:14:24.89625 Springfield-Branson National Airport (SGF)
2008-08-08 05:52:00 62 90 59.0 2017-12-29 19:14:24.89625 Springfield-Branson National Airport (SGF)
2008-08-08 06:52:00 69 84 64.0 2017-12-29 19:14:24.89625 Springfield-Branson National Airport (SGF)
2008-08-08 07:52:00 73 74 64.0 2017-12-29 19:14:24.89625 Springfield-Branson National Airport (SGF)
2008-08-08 08:52:00 77 60 62.0 2017-12-29 19:14:24.89625 Springfield-Branson National Airport (SGF)
2008-08-08 09:52:00 79 54 61.0 2017-12-29 19:14:24.89625 Springfield-Branson National Airport (SGF)
2008-08-08 10:52:00 83 48 61.0 2017-12-29 19:14:24.89625 Springfield-Branson National Airport (SGF)
2008-08-08 13:52:00 85 37 56.0 2017-12-29 19:14:24.89625 Springfield-Branson National Airport (SGF)
2008-08-08 14:52:00 84 38 56.0 2017-12-29 19:14:24.89625 Springfield-Branson National Airport (SGF)
2008-08-08 16:52:00 84 43 59.0 2017-12-29 19:14:24.89625 Springfield-Branson National Airport (SGF)
2008-08-08 17:52:00 81 45 58.0 2017-12-29 19:14:24.89625 Springfield-Branson National Airport (SGF)
2008-08-08 18:52:00 78 52 59.0 2017-12-29 19:14:24.89625 Springfield-Branson National Airport (SGF)
2008-08-08 19:52:00 75 58 59.0 2017-12-29 19:14:24.89625 Springfield-Branson National Airport (SGF)
2008-08-08 20:52:00 73 59 58.0 2017-12-29 19:14:24.89625 Springfield-Branson National Airport (SGF)
2008-08-08 21:52:00 70 66 58.0 2017-12-29 19:14:24.89625 Springfield-Branson National Airport (SGF)
2008-08-08 22:52:00 68 70 58.0 2017-12-29 19:14:24.89625 Springfield-Branson National Airport (SGF)
2008-08-08 23:52:00 67 71 57.0 2017-12-29 19:14:24.89625 Springfield-Branson National Airport (SGF)

A total of 24 rows are displayed.